WetterOnline ( https://www.wetteronline.de )

Wetter aktuell Hof

Aktuelles Wetter: Hof/Flughafen (568m)

6-stündlich | Neueste Meldungen
Ortszeit Temperatur Wetter
Sa, 08.05. 8:00 3.9° C wolkenlos
Sa, 08.05. 2:00 1.4° C wolkenlos
Fr, 07.05. 20:00 5.1° C leichter Regen
Fr, 07.05. 14:00 6.6° C bewölkt
Fr, 07.05. 8:00 3.9° C Sprühregen
Fr, 07.05. 2:00 2.8° C Sprühregen
Do, 06.05. 20:00 4.5° C leichter Regen
Do, 06.05. 14:00 4.6° C Regen
Ortszeit Temperatur Wetter
Sa, 08.05. 9:30 6.4° C leicht bewölkt
Sa, 08.05. 9:20 6.4° C leicht bewölkt
Sa, 08.05. 9:10 6.6° C wolkig
Sa, 08.05. 9:00 5.7° C leicht bewölkt
Sa, 08.05. 8:50 5.7° C leicht bewölkt
Sa, 08.05. 8:40 5.8° C fast wolkenlos
Sa, 08.05. 8:30 5.3° C fast wolkenlos
Sa, 08.05. 8:00 3.9° C wolkenlos
Sa, 08.05. 7:30 2.7° C leicht bewölkt
Sa, 08.05. 7:00 1.9° C fast wolkenlos
Sa, 08.05. 6:30 1.3° C wolkenlos
Ortszeit Relative Feuchte Sichtweite
Sa, 08.05. 8:00 67% 45 km
Sa, 08.05. 2:00 85% 50 km
Fr, 07.05. 20:00 78% 60 km
Fr, 07.05. 14:00 59% 60 km
Fr, 07.05. 8:00 87% 8 km
Fr, 07.05. 2:00 93% 13 km
Do, 06.05. 20:00 87% 17 km
Do, 06.05. 14:00 77% 55 km
Ortszeit Relative Feuchte Sichtweite
Sa, 08.05. 9:30 51% >70 km
Sa, 08.05. 9:20 51% -
Sa, 08.05. 9:10 53% -
Sa, 08.05. 9:00 56% >70 km
Sa, 08.05. 8:50 56% -
Sa, 08.05. 8:40 55% -
Sa, 08.05. 8:30 61% 50 km
Sa, 08.05. 8:00 67% 45 km
Sa, 08.05. 7:30 71% 60 km
Sa, 08.05. 7:00 73% 55 km
Sa, 08.05. 6:30 79% 65 km
Ortszeit Niederschlagsmenge Niederschlagsart
Sa, 08.05. 8:00 0.1 l/m2 in 12 Std. -
Sa, 08.05. 2:00 0.1 l/m2 in 6 Std. Regen
Fr, 07.05. 20:00 2 l/m2 in 12 Std. Schnee, Regen
Fr, 07.05. 14:00 0.2 l/m2 in 6 Std. Regen
Fr, 07.05. 8:00 4 l/m2 in 12 Std. Regen
Fr, 07.05. 2:00 4 l/m2 in 6 Std. Regen
Do, 06.05. 20:00 3 l/m2 in 12 Std. Regen
Do, 06.05. 14:00 0.3 l/m2 in 6 Std. Schnee, Regen
Ortszeit Niederschlagsmenge Niederschlagsart
Sa, 08.05. 9:30 0.0 l/m2 in 1 Std. -
Sa, 08.05. 9:20 keine Meldung -
Sa, 08.05. 9:10 keine Meldung -
Sa, 08.05. 9:00 0.0 l/m2 in 1 Std. -
Sa, 08.05. 8:50 keine Meldung -
Sa, 08.05. 8:40 keine Meldung -
Sa, 08.05. 8:30 0.0 l/m2 in 1 Std. -
Sa, 08.05. 8:00 0.0 l/m2 in 1 Std. -
Sa, 08.05. 7:30 0.0 l/m2 in 1 Std. -
Sa, 08.05. 7:00 0.0 l/m2 in 1 Std. -
Sa, 08.05. 6:30 0.0 l/m2 in 1 Std. -
Ortszeit Stärke Spitze Richtung
km/h Bft. km/h Grad Sektor
Sa, 08.05. 8:00 6 1 17 190° S
Sa, 08.05. 2:00 4 1 22 240° SW
Fr, 07.05. 20:00 9 2 52 260° W
Fr, 07.05. 14:00 18 3 40 290° W
Fr, 07.05. 8:00 14 3 40 260° W
Fr, 07.05. 2:00 7 2 14 360° N
Do, 06.05. 20:00 6 1 26 120° SO
Do, 06.05. 14:00 17 3 35 200° S
Ortszeit Stärke Spitze Richtung
km/h Bft. km/h Grad Sektor
Sa, 08.05. 9:30 15 3 26 200° S
Sa, 08.05. 9:20 15 3 - 200° S
Sa, 08.05. 9:10 14 3 - 220° SW
Sa, 08.05. 9:00 13 3 28 210° SW
Sa, 08.05. 8:50 13 3 - 210° SW
Sa, 08.05. 8:40 13 3 - 210° SW
Sa, 08.05. 8:30 7 2 17 210° SW
Sa, 08.05. 8:00 6 1 17 190° S
Sa, 08.05. 7:30 7 2 14 200° S
Sa, 08.05. 7:00 7 2 18 230° SW
Sa, 08.05. 6:30 9 2 17 230° SW
Ortszeit Untergrenze Bedeckung Gattung
total tief tief mittel hoch
Sa, 08.05. 8:00 9000 m 0/8 0/8 - - -
Sa, 08.05. 2:00 - 0/8 0/8 - - -
Fr, 07.05. 20:00 1380 m 5/8 5/8 - - -
Fr, 07.05. 14:00 630 m 7/8 7/8 - - -
Fr, 07.05. 8:00 300 m 7/8 7/8 - - -
Fr, 07.05. 2:00 120 m 8/8 8/8 - - -
Do, 06.05. 20:00 210 m 8/8 8/8 - - -
Do, 06.05. 14:00 330 m 8/8 8/8 - - -
Ortszeit Bedeckungsgrad in Achtel und Wolkenuntergrenze
Sa, 08.05. 9:30 1(1500m) 3(7800m)
Sa, 08.05. 9:20 1(1500m) 3(7800m)
Sa, 08.05. 9:10 3(1500m) 6(7800m)
Sa, 08.05. 9:00 4(1500m) 6(7800m)
Sa, 08.05. 8:50 4(1500m)
Sa, 08.05. 8:40 1(1500m)
Sa, 08.05. 8:30 2(9000m)
Sa, 08.05. 8:00 2(9000m)
Sa, 08.05. 7:30 3(1500m)
Sa, 08.05. 7:00 4(1500m)
Sa, 08.05. 6:30 keine Wolken
Ortszeit Luftdruck NN (hPa) Tendenz (hPa in 3 Std.)
Sa, 08.05. 8:00 1021 + 0,5
Sa, 08.05. 2:00 1022 + 0,9
Fr, 07.05. 20:00 1018 + 2,4
Fr, 07.05. 14:00 1012 + 2,1
Fr, 07.05. 8:00 1008 + 2,1
Fr, 07.05. 2:00 1006 0,0
Do, 06.05. 20:00 1006 - 2,1
Do, 06.05. 14:00 1010 - 0,4
Ortszeit Luftdruck NN (hPa) Tendenz (hPa in 3 Std.)
Sa, 08.05. 9:30 1021 + 0,5
Sa, 08.05. 9:20 1021 keine Meldung
Sa, 08.05. 9:10 1021 keine Meldung
Sa, 08.05. 9:00 1021 + 0,9
Sa, 08.05. 8:50 1021 keine Meldung
Sa, 08.05. 8:40 1021 keine Meldung
Sa, 08.05. 8:30 1021 + 0,7
Sa, 08.05. 8:00 1021 + 0,5
Sa, 08.05. 7:30 1022 + 0,4
Sa, 08.05. 7:00 1022 + 0,4
Sa, 08.05. 6:30 1022 + 0,2
Ortszeit Schneehöhe (cm)
Sa, 08.05. 8:00 0
Sa, 08.05. 2:00 0
Fr, 07.05. 20:00 0
Fr, 07.05. 14:00 0
Fr, 07.05. 8:00 0
Fr, 07.05. 2:00 0
Do, 06.05. 20:00 0
Do, 06.05. 14:00 0
Ortszeit Schneehöhe (cm)
Sa, 08.05. 9:30 0
Sa, 08.05. 9:20 0
Sa, 08.05. 9:10 0
Sa, 08.05. 9:00 0
Sa, 08.05. 8:50 0
Sa, 08.05. 8:40 0
Sa, 08.05. 8:30 0
Sa, 08.05. 8:00 0
Sa, 08.05. 7:30 0
Sa, 08.05. 7:00 0
Sa, 08.05. 6:30 0
Link zu dieser Seite / Seite empfehlen

Das Wetter in ...